sensor_id;sensor_type;location;lat;lon;timestamp;temperature;humidity
75621;DHT22;64574;48.506;-2.750;2023-11-19T00:00:25;12.80;80.70
75621;DHT22;64574;48.506;-2.750;2023-11-19T00:02:51;12.80;80.90
75621;DHT22;64574;48.506;-2.750;2023-11-19T00:05:17;12.80;81.10
75621;DHT22;64574;48.506;-2.750;2023-11-19T00:07:42;12.80;81.00
75621;DHT22;64574;48.506;-2.750;2023-11-19T00:10:15;12.80;81.00
75621;DHT22;64574;48.506;-2.750;2023-11-19T00:12:45;12.80;81.10
75621;DHT22;64574;48.506;-2.750;2023-11-19T00:15:12;12.80;81.00
75621;DHT22;64574;48.506;-2.750;2023-11-19T00:17:39;12.80;81.40
75621;DHT22;64574;48.506;-2.750;2023-11-19T00:20:12;12.80;81.30
75621;DHT22;64574;48.506;-2.750;2023-11-19T00:22:38;12.80;81.00
75621;DHT22;64574;48.506;-2.750;2023-11-19T00:25:04;12.70;81.20
75621;DHT22;64574;48.506;-2.750;2023-11-19T00:27:30;12.80;81.30
75621;DHT22;64574;48.506;-2.750;2023-11-19T00:29:56;12.80;81.20
75621;DHT22;64574;48.506;-2.750;2023-11-19T00:32:22;12.80;81.10
75621;DHT22;64574;48.506;-2.750;2023-11-19T00:34:48;12.80;80.80
75621;DHT22;64574;48.506;-2.750;2023-11-19T00:37:16;12.70;80.80
75621;DHT22;64574;48.506;-2.750;2023-11-19T00:39:43;12.70;81.00
75621;DHT22;64574;48.506;-2.750;2023-11-19T00:42:11;12.80;80.80
75621;DHT22;64574;48.506;-2.750;2023-11-19T00:44:37;12.70;80.70
75621;DHT22;64574;48.506;-2.750;2023-11-19T00:47:03;12.70;80.70
75621;DHT22;64574;48.506;-2.750;2023-11-19T00:49:28;12.70;80.60
75621;DHT22;64574;48.506;-2.750;2023-11-19T00:51:54;12.70;80.70
75621;DHT22;64574;48.506;-2.750;2023-11-19T00:54:20;12.70;80.70
75621;DHT22;64574;48.506;-2.750;2023-11-19T00:56:45;12.70;80.50
75621;DHT22;64574;48.506;-2.750;2023-11-19T00:59:11;12.70;80.70
75621;DHT22;64574;48.506;-2.750;2023-11-19T01:01:36;12.70;80.50
75621;DHT22;64574;48.506;-2.750;2023-11-19T01:04:02;12.70;80.40
75621;DHT22;64574;48.506;-2.750;2023-11-19T01:06:29;12.60;80.50
75621;DHT22;64574;48.506;-2.750;2023-11-19T01:08:55;12.60;80.50
75621;DHT22;64574;48.506;-2.750;2023-11-19T01:11:23;12.60;80.50
75621;DHT22;64574;48.506;-2.750;2023-11-19T01:13:49;12.60;80.30
75621;DHT22;64574;48.506;-2.750;2023-11-19T01:16:15;12.60;80.20
75621;DHT22;64574;48.506;-2.750;2023-11-19T01:18:41;12.50;80.50
75621;DHT22;64574;48.506;-2.750;2023-11-19T01:21:07;12.60;80.40
75621;DHT22;64574;48.506;-2.750;2023-11-19T01:23:32;12.60;80.20
75621;DHT22;64574;48.506;-2.750;2023-11-19T01:25:59;12.50;80.40
75621;DHT22;64574;48.506;-2.750;2023-11-19T01:28:25;12.60;80.70
75621;DHT22;64574;48.506;-2.750;2023-11-19T01:30:51;12.50;80.40
75621;DHT22;64574;48.506;-2.750;2023-11-19T01:33:16;12.50;80.50
75621;DHT22;64574;48.506;-2.750;2023-11-19T01:35:42;12.50;80.40
75621;DHT22;64574;48.506;-2.750;2023-11-19T01:38:08;12.50;80.40
75621;DHT22;64574;48.506;-2.750;2023-11-19T01:40:37;12.50;80.50
75621;DHT22;64574;48.506;-2.750;2023-11-19T01:43:03;12.50;80.50
75621;DHT22;64574;48.506;-2.750;2023-11-19T01:45:30;12.50;80.70
75621;DHT22;64574;48.506;-2.750;2023-11-19T01:47:57;12.50;80.70
75621;DHT22;64574;48.506;-2.750;2023-11-19T01:50:24;12.50;80.90
75621;DHT22;64574;48.506;-2.750;2023-11-19T01:52:55;12.50;80.80
75621;DHT22;64574;48.506;-2.750;2023-11-19T01:55:24;12.50;80.70
75621;DHT22;64574;48.506;-2.750;2023-11-19T01:57:51;12.50;81.10
75621;DHT22;64574;48.506;-2.750;2023-11-19T02:00:18;12.50;80.90
75621;DHT22;64574;48.506;-2.750;2023-11-19T02:02:46;12.50;80.80
75621;DHT22;64574;48.506;-2.750;2023-11-19T02:05:12;12.50;80.90
75621;DHT22;64574;48.506;-2.750;2023-11-19T02:07:38;12.50;81.10
75621;DHT22;64574;48.506;-2.750;2023-11-19T02:10:05;12.50;81.10
75621;DHT22;64574;48.506;-2.750;2023-11-19T02:12:34;12.50;80.80
75621;DHT22;64574;48.506;-2.750;2023-11-19T02:15:01;12.50;80.70
75621;DHT22;64574;48.506;-2.750;2023-11-19T02:17:28;12.50;80.80
75621;DHT22;64574;48.506;-2.750;2023-11-19T02:19:54;12.30;80.80
75621;DHT22;64574;48.506;-2.750;2023-11-19T02:22:20;12.40;81.00
75621;DHT22;64574;48.506;-2.750;2023-11-19T02:24:47;12.30;81.00
75621;DHT22;64574;48.506;-2.750;2023-11-19T02:27:26;12.30;80.90
75621;DHT22;64574;48.506;-2.750;2023-11-19T02:29:54;12.20;81.00
75621;DHT22;64574;48.506;-2.750;2023-11-19T02:32:20;12.20;81.20
75621;DHT22;64574;48.506;-2.750;2023-11-19T02:34:45;12.30;81.10
75621;DHT22;64574;48.506;-2.750;2023-11-19T02:37:11;12.20;81.00
75621;DHT22;64574;48.506;-2.750;2023-11-19T02:39:37;12.20;81.00
75621;DHT22;64574;48.506;-2.750;2023-11-19T02:42:03;12.20;81.00
75621;DHT22;64574;48.506;-2.750;2023-11-19T02:44:29;12.20;81.10
75621;DHT22;64574;48.506;-2.750;2023-11-19T02:46:56;12.10;81.30
75621;DHT22;64574;48.506;-2.750;2023-11-19T02:49:24;12.10;81.30
75621;DHT22;64574;48.506;-2.750;2023-11-19T02:51:50;12.20;81.00
75621;DHT22;64574;48.506;-2.750;2023-11-19T02:54:16;12.10;81.00
75621;DHT22;64574;48.506;-2.750;2023-11-19T02:56:45;12.10;81.10
75621;DHT22;64574;48.506;-2.750;2023-11-19T02:59:13;12.10;81.10
75621;DHT22;64574;48.506;-2.750;2023-11-19T03:01:52;12.10;81.10
75621;DHT22;64574;48.506;-2.750;2023-11-19T03:04:19;12.00;81.30
75621;DHT22;64574;48.506;-2.750;2023-11-19T03:06:46;12.00;81.40
75621;DHT22;64574;48.506;-2.750;2023-11-19T03:09:11;12.00;81.30
75621;DHT22;64574;48.506;-2.750;2023-11-19T03:11:37;12.00;81.30
75621;DHT22;64574;48.506;-2.750;2023-11-19T03:14:03;12.00;81.40
75621;DHT22;64574;48.506;-2.750;2023-11-19T03:16:29;12.00;81.40
75621;DHT22;64574;48.506;-2.750;2023-11-19T03:18:55;12.00;81.20
75621;DHT22;64574;48.506;-2.750;2023-11-19T03:21:30;12.00;81.20
75621;DHT22;64574;48.506;-2.750;2023-11-19T03:23:57;12.00;81.50
75621;DHT22;64574;48.506;-2.750;2023-11-19T03:26:28;12.00;81.40
75621;DHT22;64574;48.506;-2.750;2023-11-19T03:28:54;12.00;81.20
75621;DHT22;64574;48.506;-2.750;2023-11-19T03:31:19;11.90;81.50
75621;DHT22;64574;48.506;-2.750;2023-11-19T03:33:45;12.00;81.70
75621;DHT22;64574;48.506;-2.750;2023-11-19T03:36:12;12.10;81.20
75621;DHT22;64574;48.506;-2.750;2023-11-19T03:38:38;12.10;81.30
75621;DHT22;64574;48.506;-2.750;2023-11-19T03:41:14;12.00;81.00
75621;DHT22;64574;48.506;-2.750;2023-11-19T03:43:40;12.00;81.20
75621;DHT22;64574;48.506;-2.750;2023-11-19T03:46:19;12.00;81.20
75621;DHT22;64574;48.506;-2.750;2023-11-19T03:48:46;12.00;81.10
75621;DHT22;64574;48.506;-2.750;2023-11-19T03:51:12;12.00;81.10
75621;DHT22;64574;48.506;-2.750;2023-11-19T03:53:42;12.00;81.10
75621;DHT22;64574;48.506;-2.750;2023-11-19T03:56:08;12.10;81.00
75621;DHT22;64574;48.506;-2.750;2023-11-19T03:58:35;12.00;80.80
75621;DHT22;64574;48.506;-2.750;2023-11-19T04:01:01;12.00;80.90
75621;DHT22;64574;48.506;-2.750;2023-11-19T04:03:27;12.00;81.00
75621;DHT22;64574;48.506;-2.750;2023-11-19T04:05:53;11.90;80.90
75621;DHT22;64574;48.506;-2.750;2023-11-19T04:08:19;12.00;80.90
75621;DHT22;64574;48.506;-2.750;2023-11-19T04:10:45;11.90;80.70
75621;DHT22;64574;48.506;-2.750;2023-11-19T04:13:10;11.90;80.70
75621;DHT22;64574;48.506;-2.750;2023-11-19T04:15:36;11.90;80.90
75621;DHT22;64574;48.506;-2.750;2023-11-19T04:18:02;12.00;80.60
75621;DHT22;64574;48.506;-2.750;2023-11-19T04:20:27;12.00;80.40
75621;DHT22;64574;48.506;-2.750;2023-11-19T04:22:53;12.00;80.30
75621;DHT22;64574;48.506;-2.750;2023-11-19T04:25:19;12.00;80.20
75621;DHT22;64574;48.506;-2.750;2023-11-19T04:27:45;12.00;80.10
75621;DHT22;64574;48.506;-2.750;2023-11-19T04:30:11;12.00;80.00
75621;DHT22;64574;48.506;-2.750;2023-11-19T04:32:37;12.00;80.10
75621;DHT22;64574;48.506;-2.750;2023-11-19T04:35:03;12.00;80.10
75621;DHT22;64574;48.506;-2.750;2023-11-19T04:37:28;12.00;80.20
75621;DHT22;64574;48.506;-2.750;2023-11-19T04:39:54;12.00;79.70
75621;DHT22;64574;48.506;-2.750;2023-11-19T04:42:22;12.00;79.80
75621;DHT22;64574;48.506;-2.750;2023-11-19T04:44:48;12.10;79.40
75621;DHT22;64574;48.506;-2.750;2023-11-19T04:47:13;12.10;79.40
75621;DHT22;64574;48.506;-2.750;2023-11-19T04:49:42;12.10;79.20
75621;DHT22;64574;48.506;-2.750;2023-11-19T04:52:08;12.00;79.50
75621;DHT22;64574;48.506;-2.750;2023-11-19T04:54:34;12.00;79.70
75621;DHT22;64574;48.506;-2.750;2023-11-19T04:57:00;12.00;79.70
75621;DHT22;64574;48.506;-2.750;2023-11-19T04:59:25;12.00;79.70
75621;DHT22;64574;48.506;-2.750;2023-11-19T05:01:53;11.90;79.70
75621;DHT22;64574;48.506;-2.750;2023-11-19T05:04:18;11.90;79.70
75621;DHT22;64574;48.506;-2.750;2023-11-19T05:06:44;11.90;79.50
75621;DHT22;64574;48.506;-2.750;2023-11-19T05:09:10;11.90;79.50
75621;DHT22;64574;48.506;-2.750;2023-11-19T05:11:38;11.90;79.40
75621;DHT22;64574;48.506;-2.750;2023-11-19T05:14:05;11.90;79.50
75621;DHT22;64574;48.506;-2.750;2023-11-19T05:16:31;11.90;79.40
75621;DHT22;64574;48.506;-2.750;2023-11-19T05:18:57;11.90;79.30
75621;DHT22;64574;48.506;-2.750;2023-11-19T05:21:23;11.90;79.30
75621;DHT22;64574;48.506;-2.750;2023-11-19T05:23:49;11.90;79.40
75621;DHT22;64574;48.506;-2.750;2023-11-19T05:26:22;11.90;79.30
75621;DHT22;64574;48.506;-2.750;2023-11-19T05:28:48;11.90;79.20
75621;DHT22;64574;48.506;-2.750;2023-11-19T05:31:15;11.90;79.20
75621;DHT22;64574;48.506;-2.750;2023-11-19T05:33:41;11.90;79.10
75621;DHT22;64574;48.506;-2.750;2023-11-19T05:36:06;11.90;79.10
75621;DHT22;64574;48.506;-2.750;2023-11-19T05:38:34;11.90;79.20
75621;DHT22;64574;48.506;-2.750;2023-11-19T05:40:59;11.90;79.30
75621;DHT22;64574;48.506;-2.750;2023-11-19T05:43:25;11.90;79.40
75621;DHT22;64574;48.506;-2.750;2023-11-19T05:45:51;11.80;79.70
75621;DHT22;64574;48.506;-2.750;2023-11-19T05:48:16;11.90;79.70
75621;DHT22;64574;48.506;-2.750;2023-11-19T05:50:42;11.90;79.80
75621;DHT22;64574;48.506;-2.750;2023-11-19T05:53:08;11.90;79.90
75621;DHT22;64574;48.506;-2.750;2023-11-19T05:55:38;11.90;79.80
75621;DHT22;64574;48.506;-2.750;2023-11-19T05:58:25;11.90;79.90
75621;DHT22;64574;48.506;-2.750;2023-11-19T06:00:52;11.80;80.10
75621;DHT22;64574;48.506;-2.750;2023-11-19T06:03:17;11.90;80.00
75621;DHT22;64574;48.506;-2.750;2023-11-19T06:05:47;11.90;80.00
75621;DHT22;64574;48.506;-2.750;2023-11-19T06:08:13;11.80;79.80
75621;DHT22;64574;48.506;-2.750;2023-11-19T06:10:42;11.90;79.90
75621;DHT22;64574;48.506;-2.750;2023-11-19T06:13:08;11.90;79.80
75621;DHT22;64574;48.506;-2.750;2023-11-19T06:15:35;11.90;79.80
75621;DHT22;64574;48.506;-2.750;2023-11-19T06:18:01;11.90;79.70
75621;DHT22;64574;48.506;-2.750;2023-11-19T06:20:29;11.80;79.90
75621;DHT22;64574;48.506;-2.750;2023-11-19T06:22:56;11.80;79.90
75621;DHT22;64574;48.506;-2.750;2023-11-19T06:25:22;11.80;80.00
75621;DHT22;64574;48.506;-2.750;2023-11-19T06:27:49;11.80;80.00
75621;DHT22;64574;48.506;-2.750;2023-11-19T06:30:15;11.70;80.00
75621;DHT22;64574;48.506;-2.750;2023-11-19T06:32:40;11.70;80.30
75621;DHT22;64574;48.506;-2.750;2023-11-19T06:35:06;11.80;80.00
75621;DHT22;64574;48.506;-2.750;2023-11-19T06:37:33;11.70;80.20
75621;DHT22;64574;48.506;-2.750;2023-11-19T06:39:59;11.70;80.40
75621;DHT22;64574;48.506;-2.750;2023-11-19T06:42:25;11.70;80.30
75621;DHT22;64574;48.506;-2.750;2023-11-19T06:44:50;11.70;80.40
75621;DHT22;64574;48.506;-2.750;2023-11-19T06:47:17;11.70;80.40
75621;DHT22;64574;48.506;-2.750;2023-11-19T06:49:45;11.70;80.40
75621;DHT22;64574;48.506;-2.750;2023-11-19T06:52:11;11.70;80.20
75621;DHT22;64574;48.506;-2.750;2023-11-19T06:54:39;11.70;80.30
75621;DHT22;64574;48.506;-2.750;2023-11-19T06:57:05;11.60;80.50
75621;DHT22;64574;48.506;-2.750;2023-11-19T06:59:31;11.60;80.70
75621;DHT22;64574;48.506;-2.750;2023-11-19T07:01:56;11.50;80.70
75621;DHT22;64574;48.506;-2.750;2023-11-19T07:04:22;11.60;80.70
75621;DHT22;64574;48.506;-2.750;2023-11-19T07:06:48;11.50;80.50
75621;DHT22;64574;48.506;-2.750;2023-11-19T07:09:14;11.60;80.60
75621;DHT22;64574;48.506;-2.750;2023-11-19T07:11:40;11.50;80.60
75621;DHT22;64574;48.506;-2.750;2023-11-19T07:14:07;11.50;80.60
75621;DHT22;64574;48.506;-2.750;2023-11-19T07:16:37;11.50;80.40
75621;DHT22;64574;48.506;-2.750;2023-11-19T07:19:06;11.50;80.40
75621;DHT22;64574;48.506;-2.750;2023-11-19T07:21:32;11.50;80.40
75621;DHT22;64574;48.506;-2.750;2023-11-19T07:23:58;11.50;80.20
75621;DHT22;64574;48.506;-2.750;2023-11-19T07:26:25;11.60;80.30
75621;DHT22;64574;48.506;-2.750;2023-11-19T07:28:51;11.70;80.10
75621;DHT22;64574;48.506;-2.750;2023-11-19T07:31:17;11.70;79.80
75621;DHT22;64574;48.506;-2.750;2023-11-19T07:33:46;11.80;79.70
75621;DHT22;64574;48.506;-2.750;2023-11-19T07:36:13;11.90;79.40
75621;DHT22;64574;48.506;-2.750;2023-11-19T07:38:39;11.90;79.40
75621;DHT22;64574;48.506;-2.750;2023-11-19T07:41:05;11.80;79.40
75621;DHT22;64574;48.506;-2.750;2023-11-19T07:43:32;11.80;79.80
75621;DHT22;64574;48.506;-2.750;2023-11-19T07:45:58;11.90;80.00
75621;DHT22;64574;48.506;-2.750;2023-11-19T07:48:27;11.90;79.80
75621;DHT22;64574;48.506;-2.750;2023-11-19T07:50:53;11.90;79.80
75621;DHT22;64574;48.506;-2.750;2023-11-19T07:53:19;11.90;80.00
75621;DHT22;64574;48.506;-2.750;2023-11-19T07:55:45;11.90;79.80
75621;DHT22;64574;48.506;-2.750;2023-11-19T07:58:11;11.80;79.90
75621;DHT22;64574;48.506;-2.750;2023-11-19T08:00:37;11.70;79.80
75621;DHT22;64574;48.506;-2.750;2023-11-19T08:03:03;11.70;80.00
75621;DHT22;64574;48.506;-2.750;2023-11-19T08:05:30;11.70;80.20
75621;DHT22;64574;48.506;-2.750;2023-11-19T08:07:56;11.70;80.00
75621;DHT22;64574;48.506;-2.750;2023-11-19T08:10:22;11.80;79.90
75621;DHT22;64574;48.506;-2.750;2023-11-19T08:12:48;11.90;79.70
75621;DHT22;64574;48.506;-2.750;2023-11-19T08:15:14;11.90;79.70
75621;DHT22;64574;48.506;-2.750;2023-11-19T08:17:41;11.90;79.70
75621;DHT22;64574;48.506;-2.750;2023-11-19T08:20:09;11.90;79.50
75621;DHT22;64574;48.506;-2.750;2023-11-19T08:22:39;11.90;79.70
75621;DHT22;64574;48.506;-2.750;2023-11-19T08:25:08;11.90;79.50
75621;DHT22;64574;48.506;-2.750;2023-11-19T08:27:33;11.90;79.50
75621;DHT22;64574;48.506;-2.750;2023-11-19T08:29:59;11.90;79.60
75621;DHT22;64574;48.506;-2.750;2023-11-19T08:32:26;11.90;79.30
75621;DHT22;64574;48.506;-2.750;2023-11-19T08:34:51;12.00;78.90
75621;DHT22;64574;48.506;-2.750;2023-11-19T08:37:17;11.90;79.00
75621;DHT22;64574;48.506;-2.750;2023-11-19T08:39:47;12.00;79.00
75621;DHT22;64574;48.506;-2.750;2023-11-19T08:42:13;12.10;78.70
75621;DHT22;64574;48.506;-2.750;2023-11-19T08:44:39;12.00;78.60
75621;DHT22;64574;48.506;-2.750;2023-11-19T08:47:09;12.00;78.60
75621;DHT22;64574;48.506;-2.750;2023-11-19T08:49:35;12.00;78.80
75621;DHT22;64574;48.506;-2.750;2023-11-19T08:52:00;12.00;78.90
75621;DHT22;64574;48.506;-2.750;2023-11-19T08:54:26;12.00;78.60
75621;DHT22;64574;48.506;-2.750;2023-11-19T08:56:52;12.00;78.40
75621;DHT22;64574;48.506;-2.750;2023-11-19T08:59:17;11.90;78.70
75621;DHT22;64574;48.506;-2.750;2023-11-19T09:01:44;11.90;78.70
75621;DHT22;64574;48.506;-2.750;2023-11-19T09:04:10;12.00;78.60
75621;DHT22;64574;48.506;-2.750;2023-11-19T09:06:36;11.90;78.60
75621;DHT22;64574;48.506;-2.750;2023-11-19T09:09:02;11.90;78.70
75621;DHT22;64574;48.506;-2.750;2023-11-19T09:11:29;11.90;78.60
75621;DHT22;64574;48.506;-2.750;2023-11-19T09:13:55;12.00;78.60
75621;DHT22;64574;48.506;-2.750;2023-11-19T09:16:21;12.00;78.40
75621;DHT22;64574;48.506;-2.750;2023-11-19T09:18:47;12.00;78.10
75621;DHT22;64574;48.506;-2.750;2023-11-19T09:21:13;12.10;78.20
75621;DHT22;64574;48.506;-2.750;2023-11-19T09:23:38;12.00;78.10
75621;DHT22;64574;48.506;-2.750;2023-11-19T09:26:14;12.10;78.20
75621;DHT22;64574;48.506;-2.750;2023-11-19T09:28:39;12.10;78.10
75621;DHT22;64574;48.506;-2.750;2023-11-19T09:31:17;12.10;77.90
75621;DHT22;64574;48.506;-2.750;2023-11-19T09:33:43;12.20;78.00
75621;DHT22;64574;48.506;-2.750;2023-11-19T09:36:11;12.20;77.90
75621;DHT22;64574;48.506;-2.750;2023-11-19T09:38:40;12.20;78.00
75621;DHT22;64574;48.506;-2.750;2023-11-19T09:41:06;12.20;77.70
75621;DHT22;64574;48.506;-2.750;2023-11-19T09:43:35;12.20;77.60
75621;DHT22;64574;48.506;-2.750;2023-11-19T09:46:09;12.30;77.60
75621;DHT22;64574;48.506;-2.750;2023-11-19T09:48:37;12.30;77.40
75621;DHT22;64574;48.506;-2.750;2023-11-19T09:51:04;12.40;77.40
75621;DHT22;64574;48.506;-2.750;2023-11-19T09:53:31;12.50;77.30
75621;DHT22;64574;48.506;-2.750;2023-11-19T09:56:00;12.30;77.50
75621;DHT22;64574;48.506;-2.750;2023-11-19T09:58:26;12.30;77.70
75621;DHT22;64574;48.506;-2.750;2023-11-19T10:00:52;12.40;77.70
75621;DHT22;64574;48.506;-2.750;2023-11-19T10:03:17;12.40;77.60
75621;DHT22;64574;48.506;-2.750;2023-11-19T10:05:43;12.50;77.40
75621;DHT22;64574;48.506;-2.750;2023-11-19T10:08:09;12.50;77.20
75621;DHT22;64574;48.506;-2.750;2023-11-19T10:10:37;12.50;76.40
75621;DHT22;64574;48.506;-2.750;2023-11-19T10:13:03;12.50;76.80
75621;DHT22;64574;48.506;-2.750;2023-11-19T10:15:33;12.50;76.00
75621;DHT22;64574;48.506;-2.750;2023-11-19T10:18:00;12.50;75.80
75621;DHT22;64574;48.506;-2.750;2023-11-19T10:20:26;12.70;75.00
75621;DHT22;64574;48.506;-2.750;2023-11-19T10:22:58;12.70;74.70
75621;DHT22;64574;48.506;-2.750;2023-11-19T10:25:27;12.70;74.20
75621;DHT22;64574;48.506;-2.750;2023-11-19T10:27:54;12.70;74.30
75621;DHT22;64574;48.506;-2.750;2023-11-19T10:30:30;12.70;74.40
75621;DHT22;64574;48.506;-2.750;2023-11-19T10:38:17;12.80;74.00
75621;DHT22;64574;48.506;-2.750;2023-11-19T10:40:43;12.80;73.80
75621;DHT22;64574;48.506;-2.750;2023-11-19T10:43:09;12.80;74.00
75621;DHT22;64574;48.506;-2.750;2023-11-19T10:45:38;12.80;74.30
75621;DHT22;64574;48.506;-2.750;2023-11-19T10:48:05;12.80;74.20
75621;DHT22;64574;48.506;-2.750;2023-11-19T10:50:35;12.80;74.00
75621;DHT22;64574;48.506;-2.750;2023-11-19T10:53:02;12.90;73.20
75621;DHT22;64574;48.506;-2.750;2023-11-19T10:55:34;13.10;72.90
75621;DHT22;64574;48.506;-2.750;2023-11-19T10:58:02;13.10;72.90
75621;DHT22;64574;48.506;-2.750;2023-11-19T11:03:25;13.20;71.90
75621;DHT22;64574;48.506;-2.750;2023-11-19T11:05:53;13.10;71.70
75621;DHT22;64574;48.506;-2.750;2023-11-19T11:08:20;13.10;72.30
75621;DHT22;64574;48.506;-2.750;2023-11-19T11:13:17;13.10;72.80
75621;DHT22;64574;48.506;-2.750;2023-11-19T11:15:44;13.10;72.90
75621;DHT22;64574;48.506;-2.750;2023-11-19T11:18:12;13.10;72.00
75621;DHT22;64574;48.506;-2.750;2023-11-19T11:20:39;13.10;71.40
75621;DHT22;64574;48.506;-2.750;2023-11-19T11:29:10;13.10;71.40
75621;DHT22;64574;48.506;-2.750;2023-11-19T11:31:25;13.00;71.40
75621;DHT22;64574;48.506;-2.750;2023-11-19T11:36:57;12.90;72.00
75621;DHT22;64574;48.506;-2.750;2023-11-19T11:39:29;12.90;71.80
75621;DHT22;64574;48.506;-2.750;2023-11-19T11:47:34;13.20;71.40
75621;DHT22;64574;48.506;-2.750;2023-11-19T11:50:16;13.10;71.50
75621;DHT22;64574;48.506;-2.750;2023-11-19T11:57:54;13.10;71.80
75621;DHT22;64574;48.506;-2.750;2023-11-19T12:02:59;13.10;71.70
75621;DHT22;64574;48.506;-2.750;2023-11-19T12:05:25;13.10;72.00
75621;DHT22;64574;48.506;-2.750;2023-11-19T12:08:01;13.10;71.70
75621;DHT22;64574;48.506;-2.750;2023-11-19T12:10:30;13.10;71.10
75621;DHT22;64574;48.506;-2.750;2023-11-19T12:12:59;13.20;69.70
75621;DHT22;64574;48.506;-2.750;2023-11-19T12:15:25;13.10;69.10
75621;DHT22;64574;48.506;-2.750;2023-11-19T12:17:56;13.20;68.00
75621;DHT22;64574;48.506;-2.750;2023-11-19T12:20:24;13.10;68.00
75621;DHT22;64574;48.506;-2.750;2023-11-19T12:22:52;13.00;67.60
75621;DHT22;64574;48.506;-2.750;2023-11-19T12:25:19;13.00;67.20
75621;DHT22;64574;48.506;-2.750;2023-11-19T12:27:50;13.00;67.20
75621;DHT22;64574;48.506;-2.750;2023-11-19T12:30:22;13.00;67.40
75621;DHT22;64574;48.506;-2.750;2023-11-19T12:32:48;13.00;67.60
75621;DHT22;64574;48.506;-2.750;2023-11-19T12:35:14;13.00;68.00
75621;DHT22;64574;48.506;-2.750;2023-11-19T12:40:20;13.10;68.00
75621;DHT22;64574;48.506;-2.750;2023-11-19T12:42:51;13.10;66.10
75621;DHT22;64574;48.506;-2.750;2023-11-19T12:45:17;13.10;66.60
75621;DHT22;64574;48.506;-2.750;2023-11-19T12:47:43;13.10;67.00
75621;DHT22;64574;48.506;-2.750;2023-11-19T12:50:09;13.10;67.50
75621;DHT22;64574;48.506;-2.750;2023-11-19T12:52:36;13.10;66.90
75621;DHT22;64574;48.506;-2.750;2023-11-19T12:55:03;13.10;66.70
75621;DHT22;64574;48.506;-2.750;2023-11-19T12:57:36;13.10;66.80
75621;DHT22;64574;48.506;-2.750;2023-11-19T13:00:02;13.10;66.80
75621;DHT22;64574;48.506;-2.750;2023-11-19T13:02:47;13.10;66.90
75621;DHT22;64574;48.506;-2.750;2023-11-19T13:05:33;13.20;67.10
75621;DHT22;64574;48.506;-2.750;2023-11-19T13:08:08;13.30;67.40
75621;DHT22;64574;48.506;-2.750;2023-11-19T13:13:21;13.10;68.00
75621;DHT22;64574;48.506;-2.750;2023-11-19T13:15:47;13.10;68.20
75621;DHT22;64574;48.506;-2.750;2023-11-19T13:18:15;13.10;68.60
75621;DHT22;64574;48.506;-2.750;2023-11-19T13:20:41;13.10;68.60
75621;DHT22;64574;48.506;-2.750;2023-11-19T13:23:07;13.10;68.90
75621;DHT22;64574;48.506;-2.750;2023-11-19T13:25:33;13.10;68.90
75621;DHT22;64574;48.506;-2.750;2023-11-19T13:27:59;13.10;69.00
75621;DHT22;64574;48.506;-2.750;2023-11-19T13:30:25;13.10;69.20
75621;DHT22;64574;48.506;-2.750;2023-11-19T13:32:52;13.10;68.70
75621;DHT22;64574;48.506;-2.750;2023-11-19T13:35:18;13.10;68.60
75621;DHT22;64574;48.506;-2.750;2023-11-19T13:37:45;13.10;68.80
75621;DHT22;64574;48.506;-2.750;2023-11-19T13:40:12;13.10;68.90
75621;DHT22;64574;48.506;-2.750;2023-11-19T13:42:41;13.20;68.30
75621;DHT22;64574;48.506;-2.750;2023-11-19T13:45:10;13.30;68.30
75621;DHT22;64574;48.506;-2.750;2023-11-19T13:47:41;13.30;67.20
75621;DHT22;64574;48.506;-2.750;2023-11-19T13:50:15;13.30;67.00
75621;DHT22;64574;48.506;-2.750;2023-11-19T13:52:43;13.30;67.30
75621;DHT22;64574;48.506;-2.750;2023-11-19T13:55:11;13.50;67.00
75621;DHT22;64574;48.506;-2.750;2023-11-19T13:57:38;13.50;67.20
75621;DHT22;64574;48.506;-2.750;2023-11-19T14:00:06;13.50;67.50
75621;DHT22;64574;48.506;-2.750;2023-11-19T14:02:36;13.50;67.90
75621;DHT22;64574;48.506;-2.750;2023-11-19T14:05:02;13.60;68.20
75621;DHT22;64574;48.506;-2.750;2023-11-19T14:07:27;13.60;65.90
75621;DHT22;64574;48.506;-2.750;2023-11-19T14:09:53;13.60;65.30
75621;DHT22;64574;48.506;-2.750;2023-11-19T14:12:19;13.70;64.60
75621;DHT22;64574;48.506;-2.750;2023-11-19T14:14:45;13.60;63.60
75621;DHT22;64574;48.506;-2.750;2023-11-19T14:17:11;13.50;63.00
75621;DHT22;64574;48.506;-2.750;2023-11-19T14:19:37;13.50;63.50
75621;DHT22;64574;48.506;-2.750;2023-11-19T14:22:04;13.50;64.10
75621;DHT22;64574;48.506;-2.750;2023-11-19T14:24:31;13.50;64.30
75621;DHT22;64574;48.506;-2.750;2023-11-19T14:26:57;13.60;64.20
75621;DHT22;64574;48.506;-2.750;2023-11-19T14:29:24;13.60;64.30
75621;DHT22;64574;48.506;-2.750;2023-11-19T14:31:51;13.50;64.50
75621;DHT22;64574;48.506;-2.750;2023-11-19T14:34:18;13.50;65.00
75621;DHT22;64574;48.506;-2.750;2023-11-19T14:36:44;13.30;65.40
75621;DHT22;64574;48.506;-2.750;2023-11-19T14:39:10;13.30;65.50
75621;DHT22;64574;48.506;-2.750;2023-11-19T14:41:36;13.30;66.20
75621;DHT22;64574;48.506;-2.750;2023-11-19T14:44:02;13.40;66.00
75621;DHT22;64574;48.506;-2.750;2023-11-19T14:46:29;13.50;66.00
75621;DHT22;64574;48.506;-2.750;2023-11-19T14:48:54;13.40;66.30
75621;DHT22;64574;48.506;-2.750;2023-11-19T14:51:20;13.50;66.40
75621;DHT22;64574;48.506;-2.750;2023-11-19T14:53:46;13.40;66.50
75621;DHT22;64574;48.506;-2.750;2023-11-19T14:56:12;13.40;66.20
75621;DHT22;64574;48.506;-2.750;2023-11-19T14:58:39;13.40;66.10
75621;DHT22;64574;48.506;-2.750;2023-11-19T15:01:05;13.40;66.30
75621;DHT22;64574;48.506;-2.750;2023-11-19T15:03:31;13.40;66.30
75621;DHT22;64574;48.506;-2.750;2023-11-19T15:05:56;13.40;66.20
75621;DHT22;64574;48.506;-2.750;2023-11-19T15:08:22;13.30;67.00
75621;DHT22;64574;48.506;-2.750;2023-11-19T15:10:48;13.30;67.10
75621;DHT22;64574;48.506;-2.750;2023-11-19T15:13:14;13.30;66.80
75621;DHT22;64574;48.506;-2.750;2023-11-19T15:15:39;13.30;67.20
75621;DHT22;64574;48.506;-2.750;2023-11-19T15:18:05;13.30;66.70
75621;DHT22;64574;48.506;-2.750;2023-11-19T15:20:31;13.30;66.60
75621;DHT22;64574;48.506;-2.750;2023-11-19T15:22:59;13.30;65.90
75621;DHT22;64574;48.506;-2.750;2023-11-19T15:25:25;13.30;66.00
75621;DHT22;64574;48.506;-2.750;2023-11-19T15:27:50;13.10;66.00
75621;DHT22;64574;48.506;-2.750;2023-11-19T15:30:16;13.10;66.50
75621;DHT22;64574;48.506;-2.750;2023-11-19T15:32:42;13.00;67.00
75621;DHT22;64574;48.506;-2.750;2023-11-19T15:35:11;13.00;66.90
75621;DHT22;64574;48.506;-2.750;2023-11-19T15:37:37;13.00;67.20
75621;DHT22;64574;48.506;-2.750;2023-11-19T15:40:06;12.90;67.30
75621;DHT22;64574;48.506;-2.750;2023-11-19T15:42:34;13.00;67.40
75621;DHT22;64574;48.506;-2.750;2023-11-19T15:45:00;12.90;67.70
75621;DHT22;64574;48.506;-2.750;2023-11-19T15:47:25;12.90;67.90
75621;DHT22;64574;48.506;-2.750;2023-11-19T15:49:51;12.90;68.10
75621;DHT22;64574;48.506;-2.750;2023-11-19T15:52:17;13.00;68.00